Terminal Aerodrome Forecast
Issued by NWS St Louis, MO

Home | Current Version | Previous Version | Text Only | Print | Product List | Glossary On
Versions: 1 2 3 4 5 6 7 8 9 10 11 12 13 14 15
489
FTUS43 KLSX 032006 AAA
TAFCOU
TAF AMD
KCOU 032006Z 0320/0418 30015G25KT P6SM OVC025
     FM040100 30010KT P6SM BKN040
     FM040900 29006KT P6SM FEW250=

USA.gov is the U.S. government's official web portal to all federal, state and local government web resources and services.